CDG9546 ZSZS-ZSJN
Flight info
| Callsign | CDG9546 |
|---|---|
| Flight time | 1h 25m |
| Altitude | 40100 |
| Route | PONAB9Z PONAB W13 LASAN G327 JTN W583 SUF W167 SASAN W161 VMB A593 ABTUB ABTUB6W |
| Aircraft | B38M/M-SDE1FGHILORVWXY/HB1 |
Departure
| Time | 2026-05-07 02:49 |
|---|---|
| Airport | Zhoushan Putuoshan International Airport (ZSZS) |
Arrival
| Time | 2026-05-07 04:15 |
|---|---|
| Airport | Jinan Yaoqiang International Airport (ZSJN) |
| Time | Latitude | Longitude | Altitude | Speed | Heading |
|---|---|---|---|---|---|
| 2026-05-07 02:30 | 29.93687 | 122.35829 | 42 ft | 0 kts | 266° |
| 2026-05-07 02:41 | 29.93688 | 122.35850 | 38 ft | 4 kts | 266° |
| 2026-05-07 02:41 | 29.93689 | 122.35881 | 38 ft | 4 kts | 269° |
| 2026-05-07 02:41 | 29.93689 | 122.35912 | 40 ft | 4 kts | 272° |
| 2026-05-07 02:42 | 29.93688 | 122.35929 | 41 ft | 1 kts | 274° |
| 2026-05-07 02:42 | 29.93688 | 122.35931 | 41 ft | 0 kts | 274° |
| 2026-05-07 02:45 | 29.93698 | 122.35909 | 40 ft | 7 kts | 310° |
| 2026-05-07 02:45 | 29.93740 | 122.35893 | 45 ft | 9 kts | 12° |
| 2026-05-07 02:45 | 29.93806 | 122.35946 | 50 ft | 18 kts | 61° |
| 2026-05-07 02:46 | 29.93899 | 122.35988 | 53 ft | 20 kts | 352° |
| 2026-05-07 02:46 | 29.94064 | 122.35973 | 52 ft | 23 kts | 354° |
| 2026-05-07 02:46 | 29.94187 | 122.35961 | 52 ft | 15 kts | 354° |
| 2026-05-07 02:46 | 29.94297 | 122.35948 | 52 ft | 16 kts | 354° |
| 2026-05-07 02:47 | 29.94388 | 122.35938 | 49 ft | 15 kts | 355° |
| 2026-05-07 02:47 | 29.94488 | 122.35928 | 47 ft | 14 kts | 4° |
| 2026-05-07 02:47 | 29.94530 | 122.35985 | 50 ft | 10 kts | 79° |
| 2026-05-07 02:47 | 29.94542 | 122.36076 | 50 ft | 13 kts | 86° |
| 2026-05-07 02:48 | 29.94527 | 122.36112 | 52 ft | 0 kts | 163° |
| 2026-05-07 02:48 | 29.94473 | 122.36119 | 53 ft | 19 kts | 172° |
| 2026-05-07 02:48 | 29.94166 | 122.36152 | 57 ft | 83 kts | 175° |
| 2026-05-07 02:48 | 29.93351 | 122.36233 | 86 ft | 147 kts | 175° |
| 2026-05-07 02:49 | 29.92261 | 122.36372 | 537 ft | 176 kts | 172° |
| 2026-05-07 02:49 | 29.91058 | 122.36603 | 1580 ft | 170 kts | 173° |
| 2026-05-07 02:49 | 29.89896 | 122.36806 | 2623 ft | 175 kts | 181° |
| 2026-05-07 02:49 | 29.88705 | 122.36418 | 3541 ft | 188 kts | 223° |
| 2026-05-07 02:50 | 29.88160 | 122.35166 | 4703 ft | 174 kts | 272° |
| 2026-05-07 02:50 | 29.88596 | 122.33883 | 5662 ft | 181 kts | 312° |
| 2026-05-07 02:50 | 29.89619 | 122.33010 | 6593 ft | 190 kts | 332° |
| 2026-05-07 02:50 | 29.90918 | 122.32706 | 7550 ft | 201 kts | 7° |
| 2026-05-07 02:51 | 29.92263 | 122.33191 | 8514 ft | 209 kts | 14° |
| 2026-05-07 02:51 | 29.93709 | 122.33453 | 9385 ft | 215 kts | 2° |
| 2026-05-07 02:51 | 29.95204 | 122.33633 | 10338 ft | 220 kts | 3° |
| 2026-05-07 02:51 | 29.96741 | 122.33844 | 11273 ft | 225 kts | 3° |
| 2026-05-07 02:52 | 29.98310 | 122.34073 | 12273 ft | 229 kts | 2° |
| 2026-05-07 02:52 | 29.99912 | 122.34315 | 13292 ft | 235 kts | 2° |
| 2026-05-07 02:52 | 30.01548 | 122.34567 | 14266 ft | 239 kts | 1° |
| 2026-05-07 02:52 | 30.03213 | 122.34830 | 15212 ft | 243 kts | 1° |
| 2026-05-07 02:53 | 30.04901 | 122.35097 | 16145 ft | 247 kts | 1° |
| 2026-05-07 02:53 | 30.06613 | 122.35370 | 17090 ft | 251 kts | 1° |
| 2026-05-07 02:53 | 30.08357 | 122.35649 | 18020 ft | 255 kts | 0° |
| 2026-05-07 02:53 | 30.10132 | 122.35934 | 18849 ft | 258 kts | 0° |
| 2026-05-07 02:54 | 30.11899 | 122.36217 | 19642 ft | 264 kts | 0° |
| 2026-05-07 02:54 | 30.13775 | 122.36514 | 20168 ft | 281 kts | 0° |
| 2026-05-07 02:54 | 30.15784 | 122.36831 | 20647 ft | 300 kts | 1° |
| 2026-05-07 02:54 | 30.17930 | 122.37173 | 21107 ft | 321 kts | 1° |
| 2026-05-07 02:55 | 30.20189 | 122.37538 | 21537 ft | 341 kts | 1° |
| 2026-05-07 02:55 | 30.22608 | 122.37933 | 21934 ft | 361 kts | 2° |
| 2026-05-07 02:55 | 30.25168 | 122.38306 | 22278 ft | 377 kts | 357° |
| 2026-05-07 02:55 | 30.27841 | 122.38406 | 22645 ft | 393 kts | 356° |
| 2026-05-07 02:56 | 30.30626 | 122.38535 | 23147 ft | 404 kts | 357° |
| 2026-05-07 02:56 | 30.33434 | 122.38683 | 23898 ft | 406 kts | 357° |
| 2026-05-07 02:56 | 30.36246 | 122.38837 | 24498 ft | 412 kts | 356° |
| 2026-05-07 02:56 | 30.39136 | 122.39000 | 25093 ft | 417 kts | 356° |
| 2026-05-07 02:57 | 30.42049 | 122.39165 | 25691 ft | 422 kts | 356° |
| 2026-05-07 02:57 | 30.44979 | 122.39328 | 26274 ft | 426 kts | 355° |
| 2026-05-07 02:57 | 30.47900 | 122.39003 | 26771 ft | 417 kts | 337° |
| 2026-05-07 02:57 | 30.50487 | 122.37566 | 27322 ft | 408 kts | 320° |
| 2026-05-07 02:58 | 30.52644 | 122.35508 | 27785 ft | 407 kts | 308° |
| 2026-05-07 02:58 | 30.54322 | 122.32859 | 28356 ft | 401 kts | 295° |
| 2026-05-07 02:58 | 30.55833 | 122.30106 | 28890 ft | 408 kts | 299° |
| 2026-05-07 02:58 | 30.57443 | 122.27381 | 29454 ft | 411 kts | 299° |
| 2026-05-07 02:59 | 30.58794 | 122.25106 | 29923 ft | 414 kts | 299° |
| 2026-05-07 02:59 | 30.60427 | 122.22365 | 30386 ft | 418 kts | 299° |
| 2026-05-07 02:59 | 30.62083 | 122.19583 | 30851 ft | 421 kts | 299° |
| 2026-05-07 02:59 | 30.63754 | 122.16774 | 31317 ft | 424 kts | 299° |
| 2026-05-07 03:00 | 30.65430 | 122.13955 | 31750 ft | 428 kts | 299° |
| 2026-05-07 03:00 | 30.67137 | 122.11086 | 31935 ft | 433 kts | 300° |
| 2026-05-07 03:00 | 30.70569 | 122.05309 | 31950 ft | 433 kts | 301° |
| 2026-05-07 03:01 | 30.73920 | 121.99647 | 31948 ft | 433 kts | 301° |
| 2026-05-07 03:01 | 30.77328 | 121.93881 | 31941 ft | 433 kts | 301° |
| 2026-05-07 03:02 | 30.80741 | 121.88100 | 31941 ft | 433 kts | 301° |
| 2026-05-07 03:02 | 30.84130 | 121.82348 | 31934 ft | 433 kts | 301° |
| 2026-05-07 03:03 | 30.87472 | 121.76671 | 31935 ft | 433 kts | 301° |
| 2026-05-07 03:03 | 30.90866 | 121.70895 | 31930 ft | 433 kts | 301° |
| 2026-05-07 03:04 | 30.94275 | 121.65085 | 31934 ft | 433 kts | 301° |
| 2026-05-07 03:04 | 30.97670 | 121.59291 | 31934 ft | 433 kts | 301° |
| 2026-05-07 03:05 | 31.01069 | 121.53481 | 31933 ft | 433 kts | 301° |
| 2026-05-07 03:05 | 31.04462 | 121.47672 | 31935 ft | 433 kts | 301° |
| 2026-05-07 03:06 | 31.07828 | 121.41902 | 31937 ft | 433 kts | 301° |
| 2026-05-07 03:06 | 31.11212 | 121.36093 | 31963 ft | 433 kts | 301° |
| 2026-05-07 03:07 | 31.14072 | 121.29956 | 31939 ft | 430 kts | 294° |
| 2026-05-07 03:07 | 31.16705 | 121.23670 | 31938 ft | 430 kts | 294° |
| 2026-05-07 03:08 | 31.19318 | 121.17388 | 31937 ft | 430 kts | 294° |
| 2026-05-07 03:08 | 31.21913 | 121.11135 | 31932 ft | 430 kts | 294° |
| 2026-05-07 03:09 | 31.24520 | 121.04842 | 31929 ft | 430 kts | 294° |
| 2026-05-07 03:09 | 31.27120 | 120.98554 | 31927 ft | 430 kts | 294° |
| 2026-05-07 03:10 | 31.29715 | 120.92269 | 31923 ft | 429 kts | 294° |
| 2026-05-07 03:10 | 31.32312 | 120.85969 | 31924 ft | 429 kts | 294° |
| 2026-05-07 03:11 | 31.34902 | 120.79673 | 31924 ft | 429 kts | 294° |
| 2026-05-07 03:11 | 31.37491 | 120.73369 | 31920 ft | 429 kts | 294° |
| 2026-05-07 03:12 | 31.40071 | 120.67075 | 31921 ft | 429 kts | 294° |
| 2026-05-07 03:12 | 31.42636 | 120.60809 | 31923 ft | 429 kts | 294° |
| 2026-05-07 03:13 | 31.45213 | 120.54502 | 31920 ft | 429 kts | 293° |
| 2026-05-07 03:13 | 31.47790 | 120.48185 | 31920 ft | 429 kts | 293° |
| 2026-05-07 03:14 | 31.50759 | 120.42137 | 31915 ft | 434 kts | 309° |
| 2026-05-07 03:15 | 31.56287 | 120.35239 | 31926 ft | 437 kts | 309° |
| 2026-05-07 03:15 | 31.60779 | 120.30434 | 31942 ft | 443 kts | 321° |
| 2026-05-07 03:16 | 31.65811 | 120.26254 | 31930 ft | 443 kts | 320° |
| 2026-05-07 03:16 | 31.70833 | 120.22077 | 31923 ft | 443 kts | 320° |
| 2026-05-07 03:17 | 31.75840 | 120.17860 | 31925 ft | 442 kts | 319° |
| 2026-05-07 03:17 | 31.80819 | 120.13603 | 31925 ft | 442 kts | 319° |
| 2026-05-07 03:18 | 31.85769 | 120.09370 | 31925 ft | 442 kts | 319° |
| 2026-05-07 03:18 | 31.90735 | 120.05118 | 31921 ft | 442 kts | 319° |
| 2026-05-07 03:19 | 31.95713 | 120.00850 | 31936 ft | 443 kts | 319° |
| 2026-05-07 03:19 | 32.00701 | 119.96567 | 31926 ft | 443 kts | 319° |
| 2026-05-07 03:20 | 32.05667 | 119.92317 | 31924 ft | 444 kts | 319° |
| 2026-05-07 03:20 | 32.10670 | 119.88055 | 31927 ft | 444 kts | 319° |
| 2026-05-07 03:21 | 32.15671 | 119.83787 | 31928 ft | 444 kts | 319° |
| 2026-05-07 03:21 | 32.20674 | 119.79510 | 31933 ft | 444 kts | 319° |
| 2026-05-07 03:22 | 32.25661 | 119.75252 | 31943 ft | 444 kts | 319° |
| 2026-05-07 03:22 | 32.30664 | 119.70991 | 31939 ft | 444 kts | 319° |
| 2026-05-07 03:23 | 32.35678 | 119.66713 | 31937 ft | 444 kts | 319° |
| 2026-05-07 03:23 | 32.40695 | 119.62427 | 31938 ft | 444 kts | 319° |
| 2026-05-07 03:24 | 32.45670 | 119.58170 | 31946 ft | 444 kts | 319° |
| 2026-05-07 03:24 | 32.50672 | 119.53853 | 31950 ft | 444 kts | 319° |
| 2026-05-07 03:25 | 32.55624 | 119.49576 | 31971 ft | 443 kts | 318° |
| 2026-05-07 03:25 | 32.60605 | 119.45268 | 31950 ft | 442 kts | 318° |
| 2026-05-07 03:26 | 32.65587 | 119.40952 | 31951 ft | 442 kts | 318° |
| 2026-05-07 03:26 | 32.70554 | 119.36644 | 31958 ft | 442 kts | 318° |
| 2026-05-07 03:27 | 32.75495 | 119.32352 | 31956 ft | 442 kts | 318° |
| 2026-05-07 03:27 | 32.80460 | 119.28034 | 31955 ft | 442 kts | 318° |
| 2026-05-07 03:28 | 32.85424 | 119.23709 | 31978 ft | 442 kts | 318° |
| 2026-05-07 03:28 | 32.90387 | 119.19380 | 31966 ft | 442 kts | 318° |
| 2026-05-07 03:29 | 32.95352 | 119.15071 | 31975 ft | 442 kts | 318° |
| 2026-05-07 03:29 | 33.00315 | 119.10800 | 31975 ft | 442 kts | 318° |
| 2026-05-07 03:30 | 33.05301 | 119.06500 | 31983 ft | 442 kts | 318° |
| 2026-05-07 03:30 | 33.10284 | 119.02196 | 31979 ft | 442 kts | 318° |
| 2026-05-07 03:31 | 33.15252 | 118.97898 | 32020 ft | 442 kts | 318° |
| 2026-05-07 03:31 | 33.20210 | 118.93596 | 32007 ft | 440 kts | 317° |
| 2026-05-07 03:32 | 33.25127 | 118.89308 | 32000 ft | 440 kts | 317° |
| 2026-05-07 03:32 | 33.30075 | 118.84998 | 32006 ft | 440 kts | 318° |
| 2026-05-07 03:33 | 33.35027 | 118.80711 | 32003 ft | 440 kts | 317° |
| 2026-05-07 03:33 | 33.39986 | 118.76408 | 32017 ft | 440 kts | 317° |
| 2026-05-07 03:34 | 33.44941 | 118.72103 | 32012 ft | 440 kts | 317° |
| 2026-05-07 03:34 | 33.49897 | 118.67810 | 32020 ft | 439 kts | 317° |
| 2026-05-07 03:35 | 33.54831 | 118.63532 | 32038 ft | 437 kts | 317° |
| 2026-05-07 03:35 | 33.59722 | 118.59285 | 32030 ft | 436 kts | 317° |
| 2026-05-07 03:36 | 33.64634 | 118.55013 | 32036 ft | 436 kts | 317° |
| 2026-05-07 03:36 | 33.69548 | 118.50734 | 32039 ft | 436 kts | 317° |
| 2026-05-07 03:37 | 33.74458 | 118.46452 | 32041 ft | 436 kts | 317° |
| 2026-05-07 03:37 | 33.79361 | 118.42171 | 32049 ft | 435 kts | 317° |
| 2026-05-07 03:38 | 33.84116 | 118.38013 | 32043 ft | 435 kts | 317° |
| 2026-05-07 03:38 | 33.88992 | 118.33741 | 32055 ft | 434 kts | 317° |
| 2026-05-07 03:39 | 33.93861 | 118.29471 | 32055 ft | 433 kts | 317° |
| 2026-05-07 03:39 | 33.98756 | 118.25195 | 32054 ft | 433 kts | 317° |
| 2026-05-07 03:40 | 34.03637 | 118.20943 | 32061 ft | 433 kts | 317° |
| 2026-05-07 03:40 | 34.08514 | 118.16689 | 32068 ft | 431 kts | 317° |
| 2026-05-07 03:41 | 34.13372 | 118.12460 | 32064 ft | 431 kts | 317° |
| 2026-05-07 03:41 | 34.18241 | 118.08214 | 32063 ft | 431 kts | 317° |
| 2026-05-07 03:42 | 34.23072 | 118.03995 | 32065 ft | 429 kts | 316° |
| 2026-05-07 03:42 | 34.28039 | 117.99973 | 32047 ft | 440 kts | 328° |
| 2026-05-07 03:43 | 34.33962 | 117.97685 | 32087 ft | 449 kts | 334° |
| 2026-05-07 03:43 | 34.39951 | 117.95516 | 32066 ft | 449 kts | 334° |
| 2026-05-07 03:44 | 34.45951 | 117.93370 | 32064 ft | 449 kts | 334° |
| 2026-05-07 03:44 | 34.51956 | 117.91221 | 32064 ft | 449 kts | 334° |
| 2026-05-07 03:45 | 34.57906 | 117.89089 | 32064 ft | 449 kts | 334° |
| 2026-05-07 03:45 | 34.63892 | 117.86941 | 32070 ft | 448 kts | 334° |
| 2026-05-07 03:46 | 34.69889 | 117.84786 | 32068 ft | 448 kts | 334° |
| 2026-05-07 03:46 | 34.75875 | 117.82631 | 32072 ft | 448 kts | 334° |
| 2026-05-07 03:47 | 34.81847 | 117.80476 | 32072 ft | 448 kts | 334° |
| 2026-05-07 03:47 | 34.87838 | 117.78290 | 32069 ft | 452 kts | 334° |
| 2026-05-07 03:48 | 34.93870 | 117.76084 | 32076 ft | 452 kts | 334° |
| 2026-05-07 03:48 | 34.99864 | 117.73887 | 32074 ft | 452 kts | 334° |
| 2026-05-07 03:49 | 35.05881 | 117.71681 | 32077 ft | 452 kts | 334° |
| 2026-05-07 03:49 | 35.11913 | 117.69470 | 32093 ft | 452 kts | 334° |
| 2026-05-07 03:50 | 35.17941 | 117.67258 | 32084 ft | 452 kts | 334° |
| 2026-05-07 03:50 | 35.23976 | 117.65040 | 32088 ft | 452 kts | 334° |
| 2026-05-07 03:51 | 35.30003 | 117.62822 | 32091 ft | 453 kts | 334° |
| 2026-05-07 03:51 | 35.36035 | 117.60599 | 32123 ft | 449 kts | 333° |
| 2026-05-07 03:51 | 35.38962 | 117.59519 | 31729 ft | 444 kts | 333° |
| 2026-05-07 03:52 | 35.41942 | 117.58417 | 30700 ft | 446 kts | 333° |
| 2026-05-07 03:52 | 35.44887 | 117.57329 | 29970 ft | 440 kts | 333° |
| 2026-05-07 03:52 | 35.47812 | 117.56247 | 28872 ft | 440 kts | 333° |
| 2026-05-07 03:52 | 35.50760 | 117.55153 | 27629 ft | 444 kts | 334° |
| 2026-05-07 03:53 | 35.53708 | 117.54062 | 26498 ft | 444 kts | 334° |
| 2026-05-07 03:53 | 35.56677 | 117.52960 | 25601 ft | 450 kts | 334° |
| 2026-05-07 03:53 | 35.59682 | 117.51845 | 24675 ft | 451 kts | 335° |
| 2026-05-07 03:53 | 35.62690 | 117.50729 | 23769 ft | 451 kts | 335° |
| 2026-05-07 03:54 | 35.65686 | 117.49617 | 22716 ft | 445 kts | 335° |
| 2026-05-07 03:54 | 35.68630 | 117.48522 | 21791 ft | 439 kts | 336° |
| 2026-05-07 03:54 | 35.71538 | 117.47440 | 20919 ft | 433 kts | 336° |
| 2026-05-07 03:54 | 35.74402 | 117.46373 | 20068 ft | 427 kts | 337° |
| 2026-05-07 03:55 | 35.77226 | 117.45320 | 19223 ft | 422 kts | 337° |
| 2026-05-07 03:55 | 35.80018 | 117.44278 | 18395 ft | 417 kts | 338° |
| 2026-05-07 03:55 | 35.82775 | 117.43249 | 17506 ft | 412 kts | 338° |
| 2026-05-07 03:55 | 35.85465 | 117.42243 | 16667 ft | 406 kts | 338° |
| 2026-05-07 03:56 | 35.88153 | 117.41238 | 15861 ft | 400 kts | 338° |
| 2026-05-07 03:56 | 35.90793 | 117.40250 | 15092 ft | 395 kts | 339° |
| 2026-05-07 03:56 | 35.93402 | 117.39274 | 14343 ft | 391 kts | 339° |
| 2026-05-07 03:56 | 35.95999 | 117.38301 | 13553 ft | 386 kts | 339° |
| 2026-05-07 03:57 | 35.98563 | 117.37339 | 12758 ft | 381 kts | 340° |
| 2026-05-07 03:57 | 36.01074 | 117.36407 | 12155 ft | 373 kts | 340° |
| 2026-05-07 03:57 | 36.03505 | 117.35511 | 11889 ft | 356 kts | 340° |
| 2026-05-07 03:57 | 36.05823 | 117.34655 | 11707 ft | 341 kts | 340° |
| 2026-05-07 03:58 | 36.08054 | 117.33831 | 11491 ft | 327 kts | 340° |
| 2026-05-07 03:58 | 36.10169 | 117.33049 | 11290 ft | 315 kts | 340° |
| 2026-05-07 03:58 | 36.12232 | 117.32285 | 11098 ft | 303 kts | 340° |
| 2026-05-07 03:58 | 36.14215 | 117.31550 | 10938 ft | 291 kts | 340° |
| 2026-05-07 03:59 | 36.16120 | 117.30845 | 10769 ft | 281 kts | 340° |
| 2026-05-07 03:59 | 36.17960 | 117.30163 | 10617 ft | 270 kts | 340° |
| 2026-05-07 03:59 | 36.19720 | 117.29510 | 10481 ft | 260 kts | 340° |
| 2026-05-07 03:59 | 36.21424 | 117.28878 | 10330 ft | 251 kts | 340° |
| 2026-05-07 04:00 | 36.23079 | 117.28264 | 10128 ft | 245 kts | 340° |
| 2026-05-07 04:00 | 36.24702 | 117.27661 | 9818 ft | 245 kts | 340° |
| 2026-05-07 04:00 | 36.26354 | 117.27048 | 9482 ft | 251 kts | 340° |
| 2026-05-07 04:00 | 36.28031 | 117.26424 | 9182 ft | 252 kts | 340° |
| 2026-05-07 04:01 | 36.29716 | 117.25798 | 8871 ft | 253 kts | 340° |
| 2026-05-07 04:01 | 36.31396 | 117.25173 | 8595 ft | 251 kts | 341° |
| 2026-05-07 04:01 | 36.33033 | 117.24563 | 8319 ft | 247 kts | 341° |
| 2026-05-07 04:01 | 36.34673 | 117.23953 | 8030 ft | 245 kts | 341° |
| 2026-05-07 04:02 | 36.36294 | 117.23348 | 7712 ft | 240 kts | 341° |
| 2026-05-07 04:02 | 36.37870 | 117.22763 | 7422 ft | 231 kts | 342° |
| 2026-05-07 04:02 | 36.39382 | 117.22194 | 7229 ft | 227 kts | 341° |
| 2026-05-07 04:02 | 36.40930 | 117.21613 | 7006 ft | 235 kts | 342° |
| 2026-05-07 04:03 | 36.42574 | 117.21444 | 6531 ft | 239 kts | 359° |
| 2026-05-07 04:03 | 36.44159 | 117.21529 | 6405 ft | 215 kts | 358° |
| 2026-05-07 04:03 | 36.45579 | 117.21568 | 6285 ft | 200 kts | 357° |
| 2026-05-07 04:03 | 36.46500 | 117.21581 | 6140 ft | 194 kts | 358° |
| 2026-05-07 04:04 | 36.48248 | 117.21597 | 5929 ft | 185 kts | 357° |
| 2026-05-07 04:04 | 36.49108 | 117.21602 | 5799 ft | 184 kts | 358° |
| 2026-05-07 04:04 | 36.50811 | 117.21606 | 5475 ft | 184 kts | 358° |
| 2026-05-07 04:04 | 36.51665 | 117.21612 | 5303 ft | 183 kts | 359° |
| 2026-05-07 04:05 | 36.52948 | 117.21624 | 5123 ft | 182 kts | 359° |
| 2026-05-07 04:05 | 36.54201 | 117.21619 | 4930 ft | 177 kts | 359° |
| 2026-05-07 04:05 | 36.55390 | 117.21608 | 4915 ft | 164 kts | 0° |
| 2026-05-07 04:05 | 36.56482 | 117.21603 | 4759 ft | 156 kts | 360° |
| 2026-05-07 04:06 | 36.57564 | 117.21614 | 4550 ft | 155 kts | 359° |
| 2026-05-07 04:06 | 36.58629 | 117.21614 | 4352 ft | 149 kts | 359° |
| 2026-05-07 04:06 | 36.59600 | 117.21618 | 4210 ft | 129 kts | 1° |
| 2026-05-07 04:06 | 36.60457 | 117.21641 | 4048 ft | 116 kts | 357° |
| 2026-05-07 04:07 | 36.61242 | 117.21620 | 4092 ft | 111 kts | 355° |
| 2026-05-07 04:07 | 36.62010 | 117.21589 | 3886 ft | 110 kts | 359° |
| 2026-05-07 04:07 | 36.62776 | 117.21588 | 3808 ft | 111 kts | 359° |
| 2026-05-07 04:07 | 36.63555 | 117.21595 | 3746 ft | 111 kts | 359° |
| 2026-05-07 04:08 | 36.64321 | 117.21598 | 3613 ft | 109 kts | 359° |
| 2026-05-07 04:08 | 36.65079 | 117.21600 | 3511 ft | 110 kts | 359° |
| 2026-05-07 04:08 | 36.65854 | 117.21602 | 3410 ft | 112 kts | 359° |
| 2026-05-07 04:08 | 36.66641 | 117.21603 | 3405 ft | 113 kts | 359° |
| 2026-05-07 04:09 | 36.67433 | 117.21603 | 3437 ft | 114 kts | 359° |
| 2026-05-07 04:09 | 36.68215 | 117.21604 | 3468 ft | 111 kts | 359° |
| 2026-05-07 04:09 | 36.68980 | 117.21604 | 3484 ft | 109 kts | 359° |
| 2026-05-07 04:09 | 36.69738 | 117.21604 | 3438 ft | 111 kts | 359° |
| 2026-05-07 04:10 | 36.70504 | 117.21604 | 3249 ft | 110 kts | 359° |
| 2026-05-07 04:10 | 36.71259 | 117.21603 | 3073 ft | 106 kts | 359° |
| 2026-05-07 04:10 | 36.71983 | 117.21602 | 2896 ft | 105 kts | 358° |
| 2026-05-07 04:10 | 36.72709 | 117.21602 | 2728 ft | 105 kts | 359° |
| 2026-05-07 04:11 | 36.73457 | 117.21602 | 2561 ft | 105 kts | 358° |
| 2026-05-07 04:11 | 36.74174 | 117.21602 | 2378 ft | 106 kts | 358° |
| 2026-05-07 04:11 | 36.74918 | 117.21602 | 2220 ft | 107 kts | 358° |
| 2026-05-07 04:11 | 36.75647 | 117.21602 | 2046 ft | 103 kts | 357° |
| 2026-05-07 04:12 | 36.76375 | 117.21601 | 1844 ft | 108 kts | 359° |
| 2026-05-07 04:12 | 36.77149 | 117.21601 | 1685 ft | 114 kts | 358° |
| 2026-05-07 04:12 | 36.77946 | 117.21601 | 1492 ft | 115 kts | 358° |
| 2026-05-07 04:12 | 36.78752 | 117.21602 | 1317 ft | 116 kts | 359° |
| 2026-05-07 04:13 | 36.79562 | 117.21601 | 1137 ft | 116 kts | 359° |
| 2026-05-07 04:13 | 36.80362 | 117.21601 | 940 ft | 114 kts | 0° |
| 2026-05-07 04:13 | 36.81154 | 117.21601 | 770 ft | 115 kts | 0° |
| 2026-05-07 04:13 | 36.81966 | 117.21598 | 621 ft | 116 kts | 358° |
| 2026-05-07 04:14 | 36.82764 | 117.21634 | 436 ft | 116 kts | 358° |
| 2026-05-07 04:14 | 36.83578 | 117.21615 | 229 ft | 116 kts | 357° |
| 2026-05-07 04:14 | 36.84388 | 117.21598 | 92 ft | 114 kts | 358° |
| 2026-05-07 04:14 | 36.85051 | 117.21595 | 83 ft | 65 kts | 0° |
| 2026-05-07 04:15 | 36.85391 | 117.21592 | 84 ft | 49 kts | 359° |
| 2026-05-07 04:15 | 36.85685 | 117.21593 | 88 ft | 27 kts | 355° |
| 2026-05-07 04:15 | 36.85753 | 117.21523 | 84 ft | 9 kts | 275° |
| 2026-05-07 04:15 | 36.85745 | 117.21377 | 82 ft | 27 kts | 270° |
| 2026-05-07 04:16 | 36.85744 | 117.21152 | 82 ft | 21 kts | 271° |
| 2026-05-07 04:16 | 36.85694 | 117.21050 | 85 ft | 12 kts | 193° |
| 2026-05-07 04:16 | 36.85594 | 117.21063 | 84 ft | 20 kts | 177° |
| 2026-05-07 04:16 | 36.85423 | 117.21071 | 84 ft | 26 kts | 179° |
| 2026-05-07 04:17 | 36.85333 | 117.20983 | 84 ft | 12 kts | 208° |
| 2026-05-07 04:17 | 36.85245 | 117.20980 | 83 ft | 16 kts | 175° |
| 2026-05-07 04:17 | 36.85135 | 117.20979 | 85 ft | 7 kts | 218° |
| 2026-05-07 04:17 | 36.85128 | 117.20947 | 85 ft | 6 kts | 274° |
| 2026-05-07 04:18 | 36.85136 | 117.20878 | 84 ft | 0 kts | 269° |